Time;durP1;ratioP1;P1;durP2;ratioP2;P2;SDS_P1;SDS_P2;PMS_P1;PMS_P2;Temp;Humidity;BMP_temperature;BMP_pressure;BME280_temperature;BME280_humidity;BME280_pressure;Samples;Min_cycle;Max_cycle;Signal;HPM_P1;HPM_P2
2023/09/29 00:15:24;;;;;;;9.05;3.90;;;;;;;25.20;36.10;96829.41;6125965;23;20705;-26
2023/09/29 00:31:15;;;;;;;6.80;3.83;;;;;;;25.34;35.88;96831.09;6125995;23;20048;-28
2023/09/29 00:44:18;;;;;;;5.45;4.07;;;;;;;25.13;36.88;96818.84;6126096;23;20376;-27
2023/09/29 00:46:45;;;;;;;6.90;4.43;;;;;;;25.29;36.53;96818.75;6125692;23;19998;-27
2023/09/29 00:49:12;;;;;;;7.47;4.70;;;;;;;25.15;36.98;96813.53;6126210;23;20029;-27
2023/09/29 01:16:31;;;;;;;7.35;4.18;;;;;;;25.06;37.12;96795.19;6125856;23;20127;-28
2023/09/29 01:29:48;;;;;;;8.27;4.55;;;;;;;25.00;37.36;96797.22;6125987;23;20343;-27
2023/09/29 01:45:41;;;;;;;7.32;4.35;;;;;;;25.06;37.72;96789.63;6127244;23;20021;-27
2023/09/29 02:01:37;;;;;;;6.93;4.13;;;;;;;25.03;37.51;96787.88;6126408;23;20080;-26
2023/09/29 02:04:03;;;;;;;6.63;4.28;;;;;;;25.14;37.36;96784.25;6127082;23;20036;-28
2023/09/29 02:16:40;;;;;;;10.23;4.32;;;;;;;24.98;37.70;96788.66;6127487;23;20154;-28
2023/09/29 02:32:34;;;;;;;6.13;4.20;;;;;;;24.96;37.74;96788.44;6126913;23;20021;-27
2023/09/29 02:45:42;;;;;;;7.55;4.50;;;;;;;25.16;37.18;96792.84;6127393;23;20025;-29
2023/09/29 03:01:34;;;;;;;8.90;4.30;;;;;;;24.96;37.68;96791.97;6125515;23;20029;-27
2023/09/29 03:17:29;;;;;;;5.45;4.43;;;;;;;24.89;37.94;96781.38;6126391;23;20045;-27
2023/09/29 03:33:21;;;;;;;5.80;4.07;;;;;;;24.86;37.61;96776.09;6126522;23;20016;-27
2023/09/29 03:46:28;;;;;;;7.15;4.03;;;;;;;25.00;37.17;96780.56;6126668;23;20069;-27
2023/09/29 04:02:21;;;;;;;8.43;4.32;;;;;;;24.85;37.23;96786.44;6125048;23;20092;-28
2023/09/29 04:18:13;;;;;;;5.60;3.80;;;;;;;24.84;37.48;96778.66;6126076;23;20444;-29
2023/09/29 04:34:05;;;;;;;10.13;4.40;;;;;;;24.73;37.46;96789.81;6125864;23;20388;-27
2023/09/29 04:47:07;;;;;;;7.90;4.25;;;;;;;24.61;37.47;96795.38;6125943;23;20441;-28
2023/09/29 05:03:00;;;;;;;11.15;4.47;;;;;;;24.71;37.79;96801.41;6124059;23;20045;-27
2023/09/29 05:18:53;;;;;;;7.18;4.47;;;;;;;24.56;37.99;96810.03;6125625;23;20065;-27
2023/09/29 05:34:45;;;;;;;7.13;4.65;;;;;;;24.72;37.53;96810.47;6125240;23;20063;-27
2023/09/29 05:47:49;;;;;;;8.27;4.32;;;;;;;24.72;36.97;96827.13;6125579;23;20060;-27
2023/09/29 06:03:41;;;;;;;7.35;4.18;;;;;;;24.76;36.52;96833.13;6124104;23;20463;-29
2023/09/29 06:34:40;;;;;;;6.93;4.00;;;;;;;24.64;36.46;96860.16;6126787;23;20034;-27
2023/09/29 07:04:00;;;;;;;7.45;3.75;;;;;;;24.96;36.23;96880.00;6125969;23;20025;-28
2023/09/29 07:06:26;;;;;;;9.63;3.85;;;;;;;24.80;36.44;96883.56;6127147;23;20013;-27
2023/09/29 07:19:14;;;;;;;4.72;3.35;;;;;;;24.96;35.92;96889.06;6126278;23;20025;-26
2023/09/29 07:35:07;;;;;;;7.47;3.83;;;;;;;24.74;36.41;96891.13;6126382;23;20020;-27
2023/09/29 07:50:59;;;;;;;4.93;2.85;;;;;;;25.19;35.70;96917.47;6126271;23;20455;-27
2023/09/29 08:04:15;;;;;;;4.53;3.20;;;;;;;25.07;34.89;96926.38;6126635;23;20048;-27
2023/09/29 08:20:59;;;;;;;6.05;3.50;;;;;;;25.48;34.84;96923.59;6096930;23;20025;-29
2023/09/29 08:36:52;;;;;;;7.10;3.95;;;;;;;25.59;34.97;96929.13;6096877;23;20070;-29
2023/09/29 08:49:42;;;;;;;5.28;3.22;;;;;;;25.62;35.38;96930.88;6096694;23;20455;-29
2023/09/29 09:05:34;;;;;;;6.75;3.35;;;;;;;25.91;35.28;96930.16;6111513;23;20029;-29
2023/09/29 09:08:01;;;;;;;5.35;3.40;;;;;;;25.93;35.06;96929.66;6125655;23;20013;-28
2023/09/29 09:20:33;;;;;;;10.73;3.22;;;;;;;25.87;35.16;96938.03;6125606;23;20049;-29
2023/09/29 09:36:26;;;;;;;4.10;2.90;;;;;;;25.98;34.44;96937.94;6125526;23;20020;-28
2023/09/29 10:05:36;;;;;;;4.85;2.88;;;;;;;26.08;33.38;96930.78;6009171;23;20507;-29
2023/09/29 10:21:33;;;;;;;5.95;2.90;;;;;;;26.17;33.47;96934.50;6009552;23;20059;-28
2023/09/29 10:37:26;;;;;;;9.93;2.67;;;;;;;26.27;31.63;96924.56;6127146;23;20017;-28
2023/09/29 11:06:52;;;;;;;4.65;2.42;;;;;;;26.37;29.74;96900.72;6127097;23;20056;-29
2023/09/29 11:22:45;;;;;;;5.38;2.50;;;;;;;26.42;29.68;96897.91;6126895;23;20045;-28
2023/09/29 11:52:05;;;;;;;5.57;3.42;;;;;;;26.47;31.70;96871.28;6126874;23;20085;-29
2023/09/29 12:07:57;;;;;;;4.65;3.13;;;;;;;26.43;32.06;96868.06;6124923;23;20421;-28
2023/09/29 12:23:49;;;;;;;5.15;2.75;;;;;;;26.46;32.29;96853.84;6126281;23;20044;-29
2023/09/29 12:37:13;;;;;;;6.35;2.85;;;;;;;26.50;31.56;96842.44;6125893;23;20523;-28
2023/09/29 12:53:06;;;;;;;7.18;2.92;;;;;;;26.50;31.16;96828.53;6126091;23;20068;-28
2023/09/29 12:55:31;;;;;;;5.22;2.95;;;;;;;26.55;29.91;96827.72;6100154;23;20436;-28
2023/09/29 13:08:03;;;;;;;5.10;2.85;;;;;;;26.51;30.25;96826.50;6124173;23;20514;-28
2023/09/29 13:23:56;;;;;;;9.15;3.15;;;;;;;26.62;31.48;96815.22;6125739;23;20343;-28
2023/09/29 13:39:48;;;;;;;3.85;2.47;;;;;;;26.51;31.64;96812.59;6127284;23;20044;-29
2023/09/29 13:53:02;;;;;;;3.90;2.35;;;;;;;26.59;31.04;96807.94;6127976;23;20016;-30
2023/09/29 13:55:28;;;;;;;4.63;2.75;;;;;;;26.57;30.03;96800.13;6127339;23;20006;-28
2023/09/29 14:08:23;;;;;;;6.20;3.08;;;;;;;26.66;30.36;96799.75;6126214;23;20017;-28
2023/09/29 14:24:18;;;;;;;3.63;2.70;;;;;;;26.71;30.46;96787.03;6097862;23;20041;-28
2023/09/29 14:40:11;;;;;;;4.32;2.97;;;;;;;26.75;30.12;96782.69;6097852;23;20017;-28
2023/09/29 14:42:37;;;;;;;4.47;2.90;;;;;;;26.68;29.99;96777.72;6097899;23;20081;-27
2023/09/29 14:55:08;;;;;;;3.13;2.50;;;;;;;26.84;30.01;96775.97;6097371;23;20464;-28
2023/09/29 15:11:21;;;;;;;6.20;3.08;;;;;;;26.73;29.91;96771.31;6126459;23;20468;-28
2023/09/29 15:24:11;;;;;;;4.68;2.97;;;;;;;26.84;29.59;96770.41;6126656;23;20130;-28
2023/09/29 15:40:04;;;;;;;3.35;2.70;;;;;;;26.84;29.56;96771.16;6126551;23;20013;-28
2023/09/29 15:55:56;;;;;;;4.30;2.70;;;;;;;26.77;30.09;96771.78;6126058;23;20020;-28
2023/09/29 16:25:40;;;;;;;5.65;3.25;;;;;;;26.99;31.62;96781.13;6126770;23;20076;-28
2023/09/29 16:41:32;;;;;;;6.22;3.50;;;;;;;27.13;32.19;96788.25;6125684;23;20085;-28
2023/09/29 16:57:25;;;;;;;4.65;2.80;;;;;;;27.19;33.07;96800.06;6125758;23;20068;-28
2023/09/29 17:10:14;;;;;;;8.05;3.33;;;;;;;26.97;32.06;96803.16;6125067;23;20012;-28
2023/09/29 17:26:07;;;;;;;9.52;3.50;;;;;;;26.91;32.00;96811.56;6096329;23;20120;-30
2023/09/29 17:42:00;;;;;;;11.38;4.25;;;;;;;26.71;33.12;96818.41;6096399;23;20017;-28
2023/09/29 18:11:19;;;;;;;12.90;4.20;;;;;;;26.63;34.32;96828.63;6108401;23;20155;-28
2023/09/29 18:27:38;;;;;;;7.10;3.97;;;;;;;26.48;36.27;96842.19;6126992;23;20525;-28
2023/09/29 18:57:22;;;;;;;11.80;4.88;;;;;;;26.57;38.03;96866.13;6127081;23;20381;-28
2023/09/29 18:59:48;;;;;;;8.20;3.90;;;;;;;26.45;38.80;96862.72;6127065;23;20010;-28
2023/09/29 19:02:13;;;;;;;9.90;4.68;;;;;;;26.53;38.61;96871.22;6127137;23;20002;-28
2023/09/29 19:04:39;;;;;;;7.25;4.15;;;;;;;26.46;39.05;96869.78;6127419;23;20002;-29
2023/09/29 19:28:37;;;;;;;8.63;4.40;;;;;;;26.37;39.17;96873.66;6126547;23;20108;-29
2023/09/29 19:41:54;;;;;;;9.38;4.43;;;;;;;26.51;35.53;96887.69;6126888;23;20125;-28
2023/09/29 19:57:47;;;;;;;7.28;4.18;;;;;;;26.36;35.06;96894.41;6126108;23;20060;-29
2023/09/29 20:00:13;;;;;;;8.57;4.30;;;;;;;26.57;34.73;96908.63;6126535;23;20002;-28
2023/09/29 20:12:43;;;;;;;5.63;3.80;;;;;;;26.32;34.78;96893.22;6124766;23;20049;-29
2023/09/29 20:28:39;;;;;;;5.82;3.80;;;;;;;26.29;35.13;96908.13;6125875;23;20049;-29
2023/09/29 20:44:31;;;;;;;4.95;3.63;;;;;;;26.15;35.27;96918.34;6126005;23;20522;-28
2023/09/29 20:57:45;;;;;;;4.35;3.05;;;;;;;26.03;35.47;96926.03;6125634;23;20073;-29
2023/09/29 21:13:37;;;;;;;4.90;3.00;;;;;;;26.15;34.89;96918.34;6124637;23;20076;-29
2023/09/29 21:16:06;;;;;;;5.47;3.45;;;;;;;26.13;34.74;96920.88;6126120;23;20018;-29
2023/09/29 21:28:40;;;;;;;4.18;3.53;;;;;;;26.19;34.45;96918.06;6125430;23;20094;-29
2023/09/29 21:44:32;;;;;;;5.30;3.33;;;;;;;25.85;33.90;96923.88;6125709;23;20013;-28
2023/09/29 22:00:25;;;;;;;5.40;2.60;;;;;;;25.75;33.21;96925.47;6127595;23;20017;-29
2023/09/29 22:13:40;;;;;;;6.72;2.97;;;;;;;25.82;33.83;96919.38;6127575;23;20486;-28
2023/09/29 22:30:23;;;;;;;4.97;3.22;;;;;;;25.49;34.70;96919.56;6097751;23;20054;-29
2023/09/29 22:32:49;;;;;;;8.02;3.15;;;;;;;25.87;34.48;96918.56;6098380;23;20018;-29
2023/09/29 22:45:20;;;;;;;4.30;2.67;;;;;;;25.82;33.39;96919.38;6098040;23;20401;-29
2023/09/29 23:01:12;;;;;;;4.75;2.90;;;;;;;25.38;33.63;96932.25;6097416;23;20066;-30
2023/09/29 23:14:23;;;;;;;3.55;2.80;;;;;;;25.64;33.08;96936.66;6098302;23;20098;-28
2023/09/29 23:16:49;;;;;;;6.05;2.75;;;;;;;25.70;32.51;96940.19;6097506;23;20018;-29
2023/09/29 23:29:33;;;;;;;5.72;2.88;;;;;;;25.59;32.84;96956.88;6097033;23;20337;-28
2023/09/29 23:45:26;;;;;;;6.88;2.83;;;;;;;25.47;32.91;96949.88;6097225;23;20504;-29
